sensor_id;sensor_type;location;lat;lon;timestamp;pressure;altitude;pressure_sealevel;temperature;humidity
62978;BME280;49073;42.352;23.808;2023-04-29T00:01:58;94793.75;;;4.40;74.15
62978;BME280;49073;42.352;23.808;2023-04-29T00:04:59;94795.63;;;4.48;74.16
62978;BME280;49073;42.352;23.808;2023-04-29T00:08:00;94791.75;;;4.46;74.37
62978;BME280;49073;42.352;23.808;2023-04-29T00:11:00;94794.53;;;4.49;73.79
62978;BME280;49073;42.352;23.808;2023-04-29T00:14:01;94794.06;;;4.47;74.19
62978;BME280;49073;42.352;23.808;2023-04-29T00:17:01;94792.06;;;4.44;74.25
62978;BME280;49073;42.352;23.808;2023-04-29T00:20:03;94794.38;;;4.37;74.79
62978;BME280;49073;42.352;23.808;2023-04-29T00:23:03;94788.78;;;4.47;73.75
62978;BME280;49073;42.352;23.808;2023-04-29T00:26:04;94788.78;;;4.47;73.36
62978;BME280;49073;42.352;23.808;2023-04-29T00:29:05;94791.91;;;4.14;74.68
62978;BME280;49073;42.352;23.808;2023-04-29T00:32:05;94795.47;;;4.18;75.23
62978;BME280;49073;42.352;23.808;2023-04-29T00:35:07;94799.78;;;4.23;75.50
62978;BME280;49073;42.352;23.808;2023-04-29T00:38:07;94800.56;;;4.32;74.54
62978;BME280;49073;42.352;23.808;2023-04-29T00:41:08;94806.16;;;4.22;74.32
62978;BME280;49073;42.352;23.808;2023-04-29T00:44:08;94800.41;;;4.20;73.79
62978;BME280;49073;42.352;23.808;2023-04-29T00:47:09;94802.25;;;4.02;74.12
62978;BME280;49073;42.352;23.808;2023-04-29T00:50:10;94804.25;;;4.05;73.86
62978;BME280;49073;42.352;23.808;2023-04-29T00:53:12;94798.53;;;3.94;74.40
62978;BME280;49073;42.352;23.808;2023-04-29T00:56:13;94796.19;;;3.84;74.95
62978;BME280;49073;42.352;23.808;2023-04-29T00:59:15;94792.56;;;3.79;75.26
62978;BME280;49073;42.352;23.808;2023-04-29T01:02:17;94788.88;;;3.89;75.22
62978;BME280;49073;42.352;23.808;2023-04-29T01:05:18;94791.22;;;4.00;74.18
62978;BME280;49073;42.352;23.808;2023-04-29T01:08:36;94795.13;;;4.11;73.23
62978;BME280;49073;42.352;23.808;2023-04-29T01:11:48;94798.84;;;4.01;73.27
62978;BME280;49073;42.352;23.808;2023-04-29T01:15:11;94794.47;;;3.97;73.21
62978;BME280;49073;42.352;23.808;2023-04-29T01:18:20;94793.53;;;3.84;73.91
62978;BME280;49073;42.352;23.808;2023-04-29T01:21:25;94793.66;;;3.70;74.98
62978;BME280;49073;42.352;23.808;2023-04-29T01:24:25;94795.22;;;3.71;74.51
62978;BME280;49073;42.352;23.808;2023-04-29T01:27:32;94788.38;;;3.70;75.07
62978;BME280;49073;42.352;23.808;2023-04-29T01:30:49;94786.72;;;3.91;73.91
62978;BME280;49073;42.352;23.808;2023-04-29T01:37:21;94776.94;;;3.83;74.07
62978;BME280;49073;42.352;23.808;2023-04-29T01:40:42;94779.53;;;3.74;74.51
62978;BME280;49073;42.352;23.808;2023-04-29T01:43:50;94771.59;;;3.57;74.68
62978;BME280;49073;42.352;23.808;2023-04-29T01:46:52;94766.19;;;3.62;74.92
62978;BME280;49073;42.352;23.808;2023-04-29T01:49:53;94775.81;;;3.67;74.79
62978;BME280;49073;42.352;23.808;2023-04-29T01:52:54;94779.72;;;3.78;74.15
62978;BME280;49073;42.352;23.808;2023-04-29T01:55:54;94769.13;;;3.60;74.14
62978;BME280;49073;42.352;23.808;2023-04-29T01:58:55;94767.97;;;3.35;75.36
62978;BME280;49073;42.352;23.808;2023-04-29T02:01:56;94772.16;;;3.36;76.61
62978;BME280;49073;42.352;23.808;2023-04-29T02:04:58;94761.44;;;3.32;76.74
62978;BME280;49073;42.352;23.808;2023-04-29T02:08:00;94757.28;;;3.40;76.88
62978;BME280;49073;42.352;23.808;2023-04-29T02:11:01;94759.25;;;3.26;77.06
62978;BME280;49073;42.352;23.808;2023-04-29T02:14:01;94752.72;;;3.23;77.01
62978;BME280;49073;42.352;23.808;2023-04-29T02:17:02;94754.47;;;3.28;76.82
62978;BME280;49073;42.352;23.808;2023-04-29T02:20:03;94758.66;;;3.38;76.50
62978;BME280;49073;42.352;23.808;2023-04-29T02:23:03;94759.31;;;3.43;75.82
62978;BME280;49073;42.352;23.808;2023-04-29T02:26:04;94763.94;;;3.38;75.17
62978;BME280;49073;42.352;23.808;2023-04-29T02:29:06;94754.19;;;3.47;74.99
62978;BME280;49073;42.352;23.808;2023-04-29T02:32:06;94758.94;;;3.27;75.55
62978;BME280;49073;42.352;23.808;2023-04-29T02:35:07;94752.78;;;3.32;75.43
62978;BME280;49073;42.352;23.808;2023-04-29T02:38:08;94749.28;;;3.54;74.92
62978;BME280;49073;42.352;23.808;2023-04-29T02:41:09;94745.22;;;3.48;74.89
62978;BME280;49073;42.352;23.808;2023-04-29T02:44:09;94748.44;;;3.36;75.45
62978;BME280;49073;42.352;23.808;2023-04-29T02:47:10;94741.16;;;3.42;75.14
62978;BME280;49073;42.352;23.808;2023-04-29T02:50:10;94746.91;;;3.44;75.53
62978;BME280;49073;42.352;23.808;2023-04-29T02:53:11;94743.19;;;3.45;75.85
62978;BME280;49073;42.352;23.808;2023-04-29T02:56:11;94744.75;;;3.46;75.57
62978;BME280;49073;42.352;23.808;2023-04-29T02:59:12;94749.38;;;3.40;76.71
62978;BME280;49073;42.352;23.808;2023-04-29T03:02:12;94750.75;;;3.38;76.86
62978;BME280;49073;42.352;23.808;2023-04-29T03:05:14;94745.81;;;3.36;77.41
62978;BME280;49073;42.352;23.808;2023-04-29T03:08:14;94756.50;;;3.31;77.60
62978;BME280;49073;42.352;23.808;2023-04-29T03:11:15;94753.88;;;3.40;76.62
62978;BME280;49073;42.352;23.808;2023-04-29T03:14:15;94757.28;;;3.40;76.35
62978;BME280;49073;42.352;23.808;2023-04-29T03:17:18;94755.88;;;3.43;75.74
62978;BME280;49073;42.352;23.808;2023-04-29T03:20:19;94764.59;;;3.43;76.08
62978;BME280;49073;42.352;23.808;2023-04-29T03:23:19;94757.91;;;3.37;76.04
62978;BME280;49073;42.352;23.808;2023-04-29T03:26:21;94764.25;;;3.36;75.86
62978;BME280;49073;42.352;23.808;2023-04-29T03:29:23;94777.84;;;3.29;76.17
62978;BME280;49073;42.352;23.808;2023-04-29T03:32:24;94785.94;;;3.42;75.89
62978;BME280;49073;42.352;23.808;2023-04-29T03:35:25;94791.34;;;3.37;75.91
62978;BME280;49073;42.352;23.808;2023-04-29T03:38:25;94798.78;;;3.34;76.32
62978;BME280;49073;42.352;23.808;2023-04-29T03:41:26;94790.41;;;3.32;76.83
62978;BME280;49073;42.352;23.808;2023-04-29T03:44:27;94789.19;;;3.39;77.26
62978;BME280;49073;42.352;23.808;2023-04-29T03:47:28;94787.81;;;3.41;77.74
62978;BME280;49073;42.352;23.808;2023-04-29T03:50:29;94784.09;;;3.42;77.76
62978;BME280;49073;42.352;23.808;2023-04-29T03:53:29;94784.81;;;3.66;77.13
62978;BME280;49073;42.352;23.808;2023-04-29T03:56:31;94792.25;;;3.63;77.59
62978;BME280;49073;42.352;23.808;2023-04-29T03:59:31;94800.47;;;3.79;78.20
62978;BME280;49073;42.352;23.808;2023-04-29T04:02:32;94795.84;;;3.85;78.25
62978;BME280;49073;42.352;23.808;2023-04-29T04:05:33;94802.41;;;4.05;77.83
62978;BME280;49073;42.352;23.808;2023-04-29T04:08:33;94809.06;;;4.03;78.72
62978;BME280;49073;42.352;23.808;2023-04-29T04:11:34;94812.03;;;4.10;78.79
62978;BME280;49073;42.352;23.808;2023-04-29T04:14:35;94817.19;;;4.15;79.41
62978;BME280;49073;42.352;23.808;2023-04-29T04:17:36;94816.72;;;4.31;80.32
62978;BME280;49073;42.352;23.808;2023-04-29T04:20:36;94809.13;;;4.20;80.91
62978;BME280;49073;42.352;23.808;2023-04-29T04:23:37;94804.00;;;4.15;81.48
62978;BME280;49073;42.352;23.808;2023-04-29T04:26:41;94807.09;;;4.17;81.78
62978;BME280;49073;42.352;23.808;2023-04-29T04:29:42;94794.84;;;4.30;81.93
62978;BME280;49073;42.352;23.808;2023-04-29T04:32:43;94795.63;;;4.13;82.38
62978;BME280;49073;42.352;23.808;2023-04-29T04:35:44;94781.66;;;4.21;82.15
62978;BME280;49073;42.352;23.808;2023-04-29T04:38:45;94780.25;;;4.33;82.42
62978;BME280;49073;42.352;23.808;2023-04-29T04:41:45;94793.44;;;4.50;81.62
62978;BME280;49073;42.352;23.808;2023-04-29T04:44:48;94788.47;;;4.58;81.83
62978;BME280;49073;42.352;23.808;2023-04-29T04:47:49;94783.81;;;4.55;82.05
62978;BME280;49073;42.352;23.808;2023-04-29T04:50:49;94793.13;;;4.43;83.00
62978;BME280;49073;42.352;23.808;2023-04-29T04:53:50;94798.41;;;4.26;82.16
62978;BME280;49073;42.352;23.808;2023-04-29T04:56:50;94793.16;;;4.52;81.45
62978;BME280;49073;42.352;23.808;2023-04-29T04:59:51;94781.19;;;4.55;81.44
62978;BME280;49073;42.352;23.808;2023-04-29T05:02:51;94785.69;;;4.54;81.43
62978;BME280;49073;42.352;23.808;2023-04-29T05:05:56;94788.16;;;4.68;81.67
62978;BME280;49073;42.352;23.808;2023-04-29T05:08:57;94786.31;;;4.77;81.74
62978;BME280;49073;42.352;23.808;2023-04-29T05:11:58;94785.50;;;4.77;81.74
62978;BME280;49073;42.352;23.808;2023-04-29T05:14:59;94775.91;;;4.63;81.56
62978;BME280;49073;42.352;23.808;2023-04-29T05:17:59;94778.06;;;4.70;80.53
62978;BME280;49073;42.352;23.808;2023-04-29T05:21:00;94766.25;;;4.85;80.35
62978;BME280;49073;42.352;23.808;2023-04-29T05:24:01;94775.81;;;5.07;80.12
62978;BME280;49073;42.352;23.808;2023-04-29T05:27:01;94777.03;;;5.19;80.89
62978;BME280;49073;42.352;23.808;2023-04-29T05:30:03;94785.09;;;5.31;80.25
62978;BME280;49073;42.352;23.808;2023-04-29T05:33:04;94785.38;;;5.38;80.52
62978;BME280;49073;42.352;23.808;2023-04-29T05:36:06;94780.97;;;5.51;80.57
62978;BME280;49073;42.352;23.808;2023-04-29T05:39:07;94788.69;;;5.65;79.53
62978;BME280;49073;42.352;23.808;2023-04-29T05:42:07;94779.53;;;5.63;79.07
62978;BME280;49073;42.352;23.808;2023-04-29T05:45:08;94779.22;;;5.56;78.41
62978;BME280;49073;42.352;23.808;2023-04-29T05:48:10;94770.00;;;5.71;78.49
62978;BME280;49073;42.352;23.808;2023-04-29T05:51:11;94759.69;;;5.78;77.90
62978;BME280;49073;42.352;23.808;2023-04-29T05:54:12;94752.88;;;6.07;77.42
62978;BME280;49073;42.352;23.808;2023-04-29T05:57:13;94755.31;;;6.33;76.82
62978;BME280;49073;42.352;23.808;2023-04-29T06:00:13;94754.94;;;6.44;75.24
62978;BME280;49073;42.352;23.808;2023-04-29T06:03:14;94745.63;;;6.59;75.36
62978;BME280;49073;42.352;23.808;2023-04-29T06:06:14;94743.91;;;6.75;75.00
62978;BME280;49073;42.352;23.808;2023-04-29T06:09:15;94736.78;;;6.88;74.22
62978;BME280;49073;42.352;23.808;2023-04-29T06:12:16;94742.66;;;7.06;72.85
62978;BME280;49073;42.352;23.808;2023-04-29T06:15:16;94737.28;;;7.27;71.47
62978;BME280;49073;42.352;23.808;2023-04-29T06:18:17;94742.69;;;7.31;68.99
62978;BME280;49073;42.352;23.808;2023-04-29T06:21:17;94734.22;;;7.50;68.23
62978;BME280;49073;42.352;23.808;2023-04-29T06:24:18;94738.72;;;7.75;68.35
62978;BME280;49073;42.352;23.808;2023-04-29T06:27:18;94729.66;;;7.88;66.10
62978;BME280;49073;42.352;23.808;2023-04-29T06:30:19;94730.84;;;8.03;64.41
62978;BME280;49073;42.352;23.808;2023-04-29T06:33:19;94733.03;;;8.13;64.17
62978;BME280;49073;42.352;23.808;2023-04-29T06:36:20;94725.59;;;8.19;62.02
62978;BME280;49073;42.352;23.808;2023-04-29T06:39:20;94719.59;;;8.22;62.39
62978;BME280;49073;42.352;23.808;2023-04-29T06:42:23;94724.41;;;8.57;62.56
62978;BME280;49073;42.352;23.808;2023-04-29T06:45:23;94718.75;;;8.59;61.29
62978;BME280;49073;42.352;23.808;2023-04-29T06:48:24;94717.34;;;8.49;61.51
62978;BME280;49073;42.352;23.808;2023-04-29T06:51:26;94715.19;;;8.67;62.02
62978;BME280;49073;42.352;23.808;2023-04-29T06:54:28;94710.47;;;8.77;60.17
62978;BME280;49073;42.352;23.808;2023-04-29T06:57:29;94710.84;;;8.91;61.14
62978;BME280;49073;42.352;23.808;2023-04-29T07:00:29;94718.16;;;9.10;60.00
62978;BME280;49073;42.352;23.808;2023-04-29T07:03:31;94714.81;;;9.29;59.52
62978;BME280;49073;42.352;23.808;2023-04-29T07:06:31;94716.00;;;9.32;59.16
62978;BME280;49073;42.352;23.808;2023-04-29T07:09:32;94712.22;;;9.33;60.91
62978;BME280;49073;42.352;23.808;2023-04-29T07:12:33;94718.13;;;9.42;59.34
62978;BME280;49073;42.352;23.808;2023-04-29T07:15:34;94710.09;;;9.55;59.47
62978;BME280;49073;42.352;23.808;2023-04-29T07:18:35;94700.28;;;9.59;58.50
62978;BME280;49073;42.352;23.808;2023-04-29T07:21:36;94711.56;;;9.88;61.64
62978;BME280;49073;42.352;23.808;2023-04-29T07:24:36;94722.78;;;9.97;58.63
62978;BME280;49073;42.352;23.808;2023-04-29T07:27:37;94718.31;;;10.01;59.42
62978;BME280;49073;42.352;23.808;2023-04-29T07:30:38;94717.66;;;10.24;58.84
62978;BME280;49073;42.352;23.808;2023-04-29T07:33:38;94717.34;;;10.10;56.57
62978;BME280;49073;42.352;23.808;2023-04-29T07:36:39;94719.66;;;10.31;57.73
62978;BME280;49073;42.352;23.808;2023-04-29T07:39:39;94717.25;;;10.42;57.38
62978;BME280;49073;42.352;23.808;2023-04-29T07:42:41;94704.06;;;10.49;56.94
62978;BME280;49073;42.352;23.808;2023-04-29T07:45:42;94704.00;;;10.65;55.54
62978;BME280;49073;42.352;23.808;2023-04-29T07:48:42;94701.53;;;10.76;56.71
62978;BME280;49073;42.352;23.808;2023-04-29T07:51:44;94699.22;;;10.98;56.26
62978;BME280;49073;42.352;23.808;2023-04-29T07:54:45;94692.25;;;10.89;54.39
62978;BME280;49073;42.352;23.808;2023-04-29T07:57:45;94694.28;;;11.19;57.75
62978;BME280;49073;42.352;23.808;2023-04-29T08:00:46;94695.72;;;11.40;55.88
62978;BME280;49073;42.352;23.808;2023-04-29T08:03:47;94696.75;;;11.32;54.62
62978;BME280;49073;42.352;23.808;2023-04-29T08:06:47;94694.84;;;11.32;53.30
62978;BME280;49073;42.352;23.808;2023-04-29T08:09:49;94690.44;;;11.44;54.68
62978;BME280;49073;42.352;23.808;2023-04-29T08:12:50;94688.03;;;11.62;52.01
62978;BME280;49073;42.352;23.808;2023-04-29T08:15:51;94685.88;;;11.71;51.70
62978;BME280;49073;42.352;23.808;2023-04-29T08:18:52;94681.72;;;12.01;55.55
62978;BME280;49073;42.352;23.808;2023-04-29T08:21:53;94678.84;;;12.13;51.44
62978;BME280;49073;42.352;23.808;2023-04-29T08:24:53;94677.31;;;12.12;50.77
62978;BME280;49073;42.352;23.808;2023-04-29T08:27:55;94668.84;;;12.06;51.61
62978;BME280;49073;42.352;23.808;2023-04-29T08:30:57;94673.13;;;12.15;50.70
62978;BME280;49073;42.352;23.808;2023-04-29T08:33:57;94672.22;;;12.34;51.78
62978;BME280;49073;42.352;23.808;2023-04-29T08:36:58;94669.34;;;12.50;50.56
62978;BME280;49073;42.352;23.808;2023-04-29T08:39:59;94675.59;;;12.65;48.80
62978;BME280;49073;42.352;23.808;2023-04-29T08:43:00;94670.34;;;12.72;49.38
62978;BME280;49073;42.352;23.808;2023-04-29T08:46:02;94671.78;;;13.04;51.62
62978;BME280;49073;42.352;23.808;2023-04-29T08:49:03;94667.69;;;13.17;50.03
62978;BME280;49073;42.352;23.808;2023-04-29T08:52:03;94660.81;;;13.16;48.39
62978;BME280;49073;42.352;23.808;2023-04-29T08:55:05;94655.41;;;13.13;48.86
62978;BME280;49073;42.352;23.808;2023-04-29T08:58:06;94655.56;;;13.31;47.17
62978;BME280;49073;42.352;23.808;2023-04-29T09:01:09;94652.41;;;13.70;48.33
62978;BME280;49073;42.352;23.808;2023-04-29T09:07:40;94641.19;;;14.24;47.20
62978;BME280;49073;42.352;23.808;2023-04-29T09:10:42;94637.00;;;14.41;45.52
62978;BME280;49073;42.352;23.808;2023-04-29T09:13:43;94632.09;;;14.58;45.68
62978;BME280;49073;42.352;23.808;2023-04-29T09:16:46;94616.38;;;14.56;45.33
62978;BME280;49073;42.352;23.808;2023-04-29T09:19:50;94616.84;;;15.16;44.70
62978;BME280;49073;42.352;23.808;2023-04-29T09:22:56;94605.34;;;14.97;43.98
62978;BME280;49073;42.352;23.808;2023-04-29T09:25:57;94599.56;;;15.24;43.69
62978;BME280;49073;42.352;23.808;2023-04-29T09:29:12;94593.84;;;15.01;40.71
62978;BME280;49073;42.352;23.808;2023-04-29T09:32:19;94592.69;;;15.20;41.79
62978;BME280;49073;42.352;23.808;2023-04-29T09:35:25;94587.69;;;15.40;41.28
62978;BME280;49073;42.352;23.808;2023-04-29T09:38:26;94590.31;;;15.58;41.61
62978;BME280;49073;42.352;23.808;2023-04-29T09:41:27;94584.13;;;15.83;42.09
62978;BME280;49073;42.352;23.808;2023-04-29T09:44:40;94570.66;;;15.86;40.94
62978;BME280;49073;42.352;23.808;2023-04-29T09:47:41;94571.88;;;15.60;40.72
62978;BME280;49073;42.352;23.808;2023-04-29T09:50:43;94565.94;;;16.23;39.59
62978;BME280;49073;42.352;23.808;2023-04-29T09:54:19;94571.13;;;16.56;38.25
62978;BME280;49073;42.352;23.808;2023-04-29T09:57:20;94556.31;;;16.26;37.41
62978;BME280;49073;42.352;23.808;2023-04-29T10:00:29;94551.94;;;16.50;39.13
62978;BME280;49073;42.352;23.808;2023-04-29T10:03:36;94555.75;;;17.06;39.25
62978;BME280;49073;42.352;23.808;2023-04-29T10:06:39;94545.97;;;16.77;35.28
62978;BME280;49073;42.352;23.808;2023-04-29T10:09:40;94540.16;;;16.26;35.36
62978;BME280;49073;42.352;23.808;2023-04-29T10:12:41;94534.53;;;16.66;38.76
62978;BME280;49073;42.352;23.808;2023-04-29T10:15:51;94533.00;;;16.65;34.17
62978;BME280;49073;42.352;23.808;2023-04-29T10:18:53;94534.53;;;16.66;35.78
62978;BME280;49073;42.352;23.808;2023-04-29T10:21:57;94527.34;;;16.48;35.64
62978;BME280;49073;42.352;23.808;2023-04-29T10:25:00;94516.09;;;16.64;35.41
62978;BME280;49073;42.352;23.808;2023-04-29T10:28:02;94509.13;;;16.70;33.44
62978;BME280;49073;42.352;23.808;2023-04-29T10:31:04;94509.06;;;16.81;33.76
62978;BME280;49073;42.352;23.808;2023-04-29T10:34:07;94504.53;;;17.16;35.08
62978;BME280;49073;42.352;23.808;2023-04-29T10:37:11;94507.22;;;17.16;33.05
62978;BME280;49073;42.352;23.808;2023-04-29T10:40:35;94504.44;;;17.24;34.18
62978;BME280;49073;42.352;23.808;2023-04-29T10:43:39;94497.59;;;17.19;33.84
62978;BME280;49073;42.352;23.808;2023-04-29T10:46:40;94487.72;;;17.05;32.64
62978;BME280;49073;42.352;23.808;2023-04-29T10:50:00;94493.59;;;16.89;32.54
62978;BME280;49073;42.352;23.808;2023-04-29T10:53:02;94490.06;;;17.38;34.45
62978;BME280;49073;42.352;23.808;2023-04-29T10:56:07;94493.22;;;17.33;31.83
62978;BME280;49073;42.352;23.808;2023-04-29T10:59:12;94482.44;;;17.64;32.58
62978;BME280;49073;42.352;23.808;2023-04-29T11:02:13;94471.75;;;17.56;32.02
62978;BME280;49073;42.352;23.808;2023-04-29T11:05:15;94475.50;;;17.97;34.19
62978;BME280;49073;42.352;23.808;2023-04-29T11:08:22;94473.88;;;18.58;33.05
62978;BME280;49073;42.352;23.808;2023-04-29T11:11:23;94475.13;;;19.01;31.12
62978;BME280;49073;42.352;23.808;2023-04-29T11:14:32;94470.75;;;18.60;30.09
62978;BME280;49073;42.352;23.808;2023-04-29T11:17:36;94472.34;;;18.57;31.84
62978;BME280;49073;42.352;23.808;2023-04-29T11:24:05;94474.47;;;18.70;34.27
62978;BME280;49073;42.352;23.808;2023-04-29T11:27:06;94475.81;;;18.58;34.78
62978;BME280;49073;42.352;23.808;2023-04-29T11:30:07;94471.59;;;18.29;32.83
62978;BME280;49073;42.352;23.808;2023-04-29T11:33:08;94471.97;;;17.73;35.64
62978;BME280;49073;42.352;23.808;2023-04-29T11:36:10;94480.53;;;17.64;34.55
62978;BME280;49073;42.352;23.808;2023-04-29T11:39:11;94475.97;;;17.57;36.43
62978;BME280;49073;42.352;23.808;2023-04-29T11:42:11;94470.47;;;17.68;36.24
62978;BME280;49073;42.352;23.808;2023-04-29T11:45:12;94470.69;;;17.50;37.25
62978;BME280;49073;42.352;23.808;2023-04-29T11:48:24;94469.34;;;17.31;39.24
62978;BME280;49073;42.352;23.808;2023-04-29T11:51:25;94463.69;;;17.56;38.87
62978;BME280;49073;42.352;23.808;2023-04-29T11:54:27;94468.56;;;17.96;36.95
62978;BME280;49073;42.352;23.808;2023-04-29T11:57:28;94460.53;;;17.62;38.46
62978;BME280;49073;42.352;23.808;2023-04-29T12:00:30;94449.13;;;17.81;37.22
62978;BME280;49073;42.352;23.808;2023-04-29T12:03:31;94441.03;;;18.12;37.13
62978;BME280;49073;42.352;23.808;2023-04-29T12:06:32;94443.47;;;18.03;36.38
62978;BME280;49073;42.352;23.808;2023-04-29T12:09:43;94438.31;;;17.54;38.21
62978;BME280;49073;42.352;23.808;2023-04-29T12:12:44;94442.78;;;17.33;36.87
62978;BME280;49073;42.352;23.808;2023-04-29T12:15:47;94436.22;;;17.34;37.34
62978;BME280;49073;42.352;23.808;2023-04-29T12:18:49;94431.66;;;17.31;37.79
62978;BME280;49073;42.352;23.808;2023-04-29T12:21:50;94440.34;;;17.11;39.90
62978;BME280;49073;42.352;23.808;2023-04-29T12:24:52;94438.91;;;16.99;39.91
62978;BME280;49073;42.352;23.808;2023-04-29T12:27:58;94443.31;;;17.21;40.12
62978;BME280;49073;42.352;23.808;2023-04-29T12:30:59;94443.50;;;17.37;38.92
62978;BME280;49073;42.352;23.808;2023-04-29T12:34:02;94440.97;;;17.23;38.03
62978;BME280;49073;42.352;23.808;2023-04-29T12:37:04;94431.91;;;17.09;39.33
62978;BME280;49073;42.352;23.808;2023-04-29T12:40:06;94439.78;;;17.27;39.61
62978;BME280;49073;42.352;23.808;2023-04-29T12:43:07;94429.59;;;17.08;41.29
62978;BME280;49073;42.352;23.808;2023-04-29T12:46:09;94435.41;;;17.06;39.55
62978;BME280;49073;42.352;23.808;2023-04-29T12:49:11;94438.09;;;17.06;39.32
62978;BME280;49073;42.352;23.808;2023-04-29T12:52:12;94434.03;;;16.87;39.00
62978;BME280;49073;42.352;23.808;2023-04-29T12:55:13;94438.72;;;17.18;39.43
62978;BME280;49073;42.352;23.808;2023-04-29T12:58:14;94417.38;;;16.99;39.65
62978;BME280;49073;42.352;23.808;2023-04-29T13:01:14;94428.22;;;17.30;40.19
62978;BME280;49073;42.352;23.808;2023-04-29T13:04:15;94419.31;;;17.34;35.69
62978;BME280;49073;42.352;23.808;2023-04-29T13:07:16;94412.06;;;17.30;35.21
62978;BME280;49073;42.352;23.808;2023-04-29T13:10:17;94411.00;;;17.21;35.58
62978;BME280;49073;42.352;23.808;2023-04-29T13:13:18;94411.88;;;17.14;34.42
62978;BME280;49073;42.352;23.808;2023-04-29T13:16:18;94419.22;;;17.10;34.77
62978;BME280;49073;42.352;23.808;2023-04-29T13:19:19;94416.38;;;17.21;36.16
62978;BME280;49073;42.352;23.808;2023-04-29T13:22:19;94413.31;;;17.22;35.90
62978;BME280;49073;42.352;23.808;2023-04-29T13:25:21;94408.81;;;17.12;34.82
62978;BME280;49073;42.352;23.808;2023-04-29T13:28:21;94407.66;;;17.13;36.32
62978;BME280;49073;42.352;23.808;2023-04-29T13:31:23;94415.72;;;17.13;35.80
62978;BME280;49073;42.352;23.808;2023-04-29T13:34:23;94415.72;;;17.13;35.40
62978;BME280;49073;42.352;23.808;2023-04-29T13:37:24;94413.56;;;16.97;36.26
62978;BME280;49073;42.352;23.808;2023-04-29T13:40:25;94402.41;;;16.98;36.24
62978;BME280;49073;42.352;23.808;2023-04-29T13:43:25;94407.03;;;16.98;36.62
62978;BME280;49073;42.352;23.808;2023-04-29T13:46:26;94398.78;;;17.12;36.28
62978;BME280;49073;42.352;23.808;2023-04-29T13:49:28;94400.47;;;16.99;36.44
62978;BME280;49073;42.352;23.808;2023-04-29T13:52:28;94400.63;;;16.81;36.41
62978;BME280;49073;42.352;23.808;2023-04-29T13:55:30;94396.84;;;16.75;37.18
62978;BME280;49073;42.352;23.808;2023-04-29T13:58:33;94406.84;;;16.74;36.68
62978;BME280;49073;42.352;23.808;2023-04-29T14:01:34;94404.19;;;16.70;36.96
62978;BME280;49073;42.352;23.808;2023-04-29T14:04:35;94407.72;;;16.64;37.49
62978;BME280;49073;42.352;23.808;2023-04-29T14:07:35;94415.84;;;16.60;37.72
62978;BME280;49073;42.352;23.808;2023-04-29T14:10:36;94408.56;;;16.53;38.08
62978;BME280;49073;42.352;23.808;2023-04-29T14:13:37;94416.63;;;16.57;38.67
62978;BME280;49073;42.352;23.808;2023-04-29T14:16:37;94417.09;;;16.48;39.24
62978;BME280;49073;42.352;23.808;2023-04-29T14:19:38;94415.91;;;16.49;40.19
62978;BME280;49073;42.352;23.808;2023-04-29T14:22:38;94419.84;;;16.41;39.17
62978;BME280;49073;42.352;23.808;2023-04-29T14:25:39;94411.84;;;16.30;39.69
62978;BME280;49073;42.352;23.808;2023-04-29T14:28:40;94406.22;;;16.13;38.98
62978;BME280;49073;42.352;23.808;2023-04-29T14:31:40;94411.66;;;16.03;39.58
62978;BME280;49073;42.352;23.808;2023-04-29T14:34:42;94410.50;;;16.04;39.21
62978;BME280;49073;42.352;23.808;2023-04-29T14:37:42;94409.34;;;16.05;38.66
62978;BME280;49073;42.352;23.808;2023-04-29T14:40:43;94417.03;;;16.03;39.09
62978;BME280;49073;42.352;23.808;2023-04-29T14:43:43;94412.50;;;15.96;37.90
62978;BME280;49073;42.352;23.808;2023-04-29T14:46:44;94410.22;;;15.83;38.93
62978;BME280;49073;42.352;23.808;2023-04-29T14:49:45;94415.19;;;15.89;39.74
62978;BME280;49073;42.352;23.808;2023-04-29T14:52:45;94411.75;;;15.84;40.08
62978;BME280;49073;42.352;23.808;2023-04-29T14:55:47;94413.28;;;15.85;40.54
62978;BME280;49073;42.352;23.808;2023-04-29T14:58:48;94416.75;;;15.82;41.10
62978;BME280;49073;42.352;23.808;2023-04-29T15:01:48;94416.38;;;15.80;41.32
62978;BME280;49073;42.352;23.808;2023-04-29T15:04:49;94417.56;;;15.76;41.06
62978;BME280;49073;42.352;23.808;2023-04-29T15:07:49;94415.28;;;15.74;40.77
62978;BME280;49073;42.352;23.808;2023-04-29T15:10:50;94411.75;;;15.84;40.78
62978;BME280;49073;42.352;23.808;2023-04-29T15:13:51;94409.06;;;15.92;40.80
62978;BME280;49073;42.352;23.808;2023-04-29T15:16:51;94410.91;;;16.02;40.64
62978;BME280;49073;42.352;23.808;2023-04-29T15:19:52;94398.59;;;16.05;39.81
62978;BME280;49073;42.352;23.808;2023-04-29T15:22:53;94412.78;;;16.09;39.78
62978;BME280;49073;42.352;23.808;2023-04-29T15:25:56;94412.44;;;16.03;39.13
62978;BME280;49073;42.352;23.808;2023-04-29T15:28:57;94406.66;;;16.05;39.81
62978;BME280;49073;42.352;23.808;2023-04-29T15:31:57;94402.47;;;16.00;40.07
62978;BME280;49073;42.352;23.808;2023-04-29T15:35:02;94399.84;;;15.93;39.57
62978;BME280;49073;42.352;23.808;2023-04-29T15:38:02;94402.91;;;15.91;40.49
62978;BME280;49073;42.352;23.808;2023-04-29T15:41:04;94399.16;;;15.74;39.97
62978;BME280;49073;42.352;23.808;2023-04-29T15:44:06;94403.44;;;15.64;40.32
62978;BME280;49073;42.352;23.808;2023-04-29T15:47:06;94395.47;;;15.46;40.49
62978;BME280;49073;42.352;23.808;2023-04-29T15:50:07;94405.78;;;15.59;41.45
62978;BME280;49073;42.352;23.808;2023-04-29T15:53:09;94401.97;;;15.52;40.44
62978;BME280;49073;42.352;23.808;2023-04-29T15:56:10;94397.78;;;15.40;40.64
62978;BME280;49073;42.352;23.808;2023-04-29T15:59:10;94398.19;;;15.39;40.71
62978;BME280;49073;42.352;23.808;2023-04-29T16:02:11;94399.31;;;15.45;41.25
62978;BME280;49073;42.352;23.808;2023-04-29T16:05:14;94403.53;;;15.46;41.45
62978;BME280;49073;42.352;23.808;2023-04-29T16:08:15;94412.75;;;15.41;41.55